sensor_id;sensor_type;location;lat;lon;timestamp;temperature;humidity
27647;DHT22;42229;51.230;6.240;2023-09-30T00:01:27;12.90;99.90
27647;DHT22;42229;51.230;6.240;2023-09-30T00:03:53;13.00;99.90
27647;DHT22;42229;51.230;6.240;2023-09-30T00:06:19;13.00;99.90
27647;DHT22;42229;51.230;6.240;2023-09-30T00:08:45;13.00;99.90
27647;DHT22;42229;51.230;6.240;2023-09-30T00:11:15;13.00;99.90
27647;DHT22;42229;51.230;6.240;2023-09-30T00:13:42;13.00;99.90
27647;DHT22;42229;51.230;6.240;2023-09-30T00:16:08;13.00;99.90
27647;DHT22;42229;51.230;6.240;2023-09-30T00:18:35;13.00;99.90
27647;DHT22;42229;51.230;6.240;2023-09-30T00:21:01;13.00;99.90
27647;DHT22;42229;51.230;6.240;2023-09-30T00:23:27;13.00;99.90
27647;DHT22;42229;51.230;6.240;2023-09-30T00:25:54;13.00;99.90
27647;DHT22;42229;51.230;6.240;2023-09-30T00:28:21;13.10;99.90
27647;DHT22;42229;51.230;6.240;2023-09-30T00:30:47;13.10;99.90
27647;DHT22;42229;51.230;6.240;2023-09-30T00:33:14;13.10;99.90
27647;DHT22;42229;51.230;6.240;2023-09-30T00:35:40;13.20;99.90
27647;DHT22;42229;51.230;6.240;2023-09-30T00:38:06;13.20;99.90
27647;DHT22;42229;51.230;6.240;2023-09-30T00:40:32;13.20;99.90
27647;DHT22;42229;51.230;6.240;2023-09-30T00:43:01;13.30;99.90
27647;DHT22;42229;51.230;6.240;2023-09-30T00:45:27;13.30;99.90
27647;DHT22;42229;51.230;6.240;2023-09-30T00:47:54;13.30;99.90
27647;DHT22;42229;51.230;6.240;2023-09-30T00:50:21;13.30;99.90
27647;DHT22;42229;51.230;6.240;2023-09-30T00:52:48;13.30;99.90
27647;DHT22;42229;51.230;6.240;2023-09-30T00:55:15;13.30;99.90
27647;DHT22;42229;51.230;6.240;2023-09-30T00:57:42;13.40;99.90
27647;DHT22;42229;51.230;6.240;2023-09-30T01:00:10;13.40;99.90
27647;DHT22;42229;51.230;6.240;2023-09-30T01:02:38;13.40;99.90
27647;DHT22;42229;51.230;6.240;2023-09-30T01:05:10;13.40;99.90
27647;DHT22;42229;51.230;6.240;2023-09-30T01:07:36;13.40;99.90
27647;DHT22;42229;51.230;6.240;2023-09-30T01:10:03;13.40;99.90
27647;DHT22;42229;51.230;6.240;2023-09-30T01:12:29;13.40;99.90
27647;DHT22;42229;51.230;6.240;2023-09-30T01:14:59;13.40;99.90
27647;DHT22;42229;51.230;6.240;2023-09-30T01:17:30;13.40;99.90
27647;DHT22;42229;51.230;6.240;2023-09-30T01:19:57;13.40;99.90
27647;DHT22;42229;51.230;6.240;2023-09-30T01:22:24;13.40;99.90
27647;DHT22;42229;51.230;6.240;2023-09-30T01:24:51;13.40;99.90
27647;DHT22;42229;51.230;6.240;2023-09-30T01:27:17;13.40;99.90
27647;DHT22;42229;51.230;6.240;2023-09-30T01:29:45;13.40;99.90
27647;DHT22;42229;51.230;6.240;2023-09-30T01:32:13;13.40;99.90
27647;DHT22;42229;51.230;6.240;2023-09-30T01:34:39;13.40;99.90
27647;DHT22;42229;51.230;6.240;2023-09-30T01:37:06;13.40;99.90
27647;DHT22;42229;51.230;6.240;2023-09-30T01:39:32;13.40;99.90
27647;DHT22;42229;51.230;6.240;2023-09-30T01:41:59;13.40;99.90
27647;DHT22;42229;51.230;6.240;2023-09-30T01:44:25;13.40;99.90
27647;DHT22;42229;51.230;6.240;2023-09-30T01:46:52;13.40;99.90
27647;DHT22;42229;51.230;6.240;2023-09-30T01:49:18;13.40;99.90
27647;DHT22;42229;51.230;6.240;2023-09-30T01:51:44;13.30;99.90
27647;DHT22;42229;51.230;6.240;2023-09-30T01:54:11;13.30;99.90
27647;DHT22;42229;51.230;6.240;2023-09-30T01:56:38;13.30;99.90
27647;DHT22;42229;51.230;6.240;2023-09-30T01:59:04;13.30;99.90
27647;DHT22;42229;51.230;6.240;2023-09-30T02:01:30;13.20;99.90
27647;DHT22;42229;51.230;6.240;2023-09-30T02:03:57;13.20;99.90
27647;DHT22;42229;51.230;6.240;2023-09-30T02:06:23;13.20;99.90
27647;DHT22;42229;51.230;6.240;2023-09-30T02:08:49;13.20;99.90
27647;DHT22;42229;51.230;6.240;2023-09-30T02:11:16;13.20;99.90
27647;DHT22;42229;51.230;6.240;2023-09-30T02:13:42;13.10;99.90
27647;DHT22;42229;51.230;6.240;2023-09-30T02:16:13;13.10;99.90
27647;DHT22;42229;51.230;6.240;2023-09-30T02:18:41;13.10;99.90
27647;DHT22;42229;51.230;6.240;2023-09-30T02:21:16;13.10;99.90
27647;DHT22;42229;51.230;6.240;2023-09-30T02:23:42;13.10;99.90
27647;DHT22;42229;51.230;6.240;2023-09-30T02:26:16;13.00;99.90
27647;DHT22;42229;51.230;6.240;2023-09-30T02:28:43;13.00;99.90
27647;DHT22;42229;51.230;6.240;2023-09-30T02:31:09;13.00;99.90
27647;DHT22;42229;51.230;6.240;2023-09-30T02:33:35;13.00;99.90
27647;DHT22;42229;51.230;6.240;2023-09-30T02:36:03;13.00;99.90
27647;DHT22;42229;51.230;6.240;2023-09-30T02:38:31;13.00;99.90
27647;DHT22;42229;51.230;6.240;2023-09-30T02:40:58;13.00;99.90
27647;DHT22;42229;51.230;6.240;2023-09-30T02:43:24;13.00;99.90
27647;DHT22;42229;51.230;6.240;2023-09-30T02:45:50;13.00;99.90
27647;DHT22;42229;51.230;6.240;2023-09-30T02:48:16;13.00;99.90
27647;DHT22;42229;51.230;6.240;2023-09-30T02:50:43;13.00;99.90
27647;DHT22;42229;51.230;6.240;2023-09-30T02:53:15;13.00;99.90
27647;DHT22;42229;51.230;6.240;2023-09-30T02:55:41;13.00;99.90
27647;DHT22;42229;51.230;6.240;2023-09-30T02:58:10;13.10;99.90
27647;DHT22;42229;51.230;6.240;2023-09-30T03:00:37;13.00;99.90
27647;DHT22;42229;51.230;6.240;2023-09-30T03:03:04;13.00;99.90
27647;DHT22;42229;51.230;6.240;2023-09-30T03:05:30;13.00;99.90
27647;DHT22;42229;51.230;6.240;2023-09-30T03:07:59;13.00;99.90
27647;DHT22;42229;51.230;6.240;2023-09-30T03:10:26;13.00;99.90
27647;DHT22;42229;51.230;6.240;2023-09-30T03:12:53;13.00;99.90
27647;DHT22;42229;51.230;6.240;2023-09-30T03:15:20;13.00;99.90
27647;DHT22;42229;51.230;6.240;2023-09-30T03:17:46;13.10;99.90
27647;DHT22;42229;51.230;6.240;2023-09-30T03:20:12;13.00;99.90
27647;DHT22;42229;51.230;6.240;2023-09-30T03:22:43;13.00;99.90
27647;DHT22;42229;51.230;6.240;2023-09-30T03:25:10;13.00;99.90
27647;DHT22;42229;51.230;6.240;2023-09-30T03:27:37;13.00;99.90
27647;DHT22;42229;51.230;6.240;2023-09-30T03:30:04;13.00;99.90
27647;DHT22;42229;51.230;6.240;2023-09-30T03:32:31;13.00;99.90
27647;DHT22;42229;51.230;6.240;2023-09-30T03:34:59;12.90;99.90
27647;DHT22;42229;51.230;6.240;2023-09-30T03:37:27;13.00;99.90
27647;DHT22;42229;51.230;6.240;2023-09-30T03:39:54;12.90;99.90
27647;DHT22;42229;51.230;6.240;2023-09-30T03:42:20;12.90;99.90
27647;DHT22;42229;51.230;6.240;2023-09-30T03:44:47;12.80;99.90
27647;DHT22;42229;51.230;6.240;2023-09-30T03:47:18;12.80;99.90
27647;DHT22;42229;51.230;6.240;2023-09-30T03:49:44;12.80;99.90
27647;DHT22;42229;51.230;6.240;2023-09-30T03:52:11;12.80;99.90
27647;DHT22;42229;51.230;6.240;2023-09-30T03:54:37;12.80;99.90
27647;DHT22;42229;51.230;6.240;2023-09-30T03:57:03;12.80;99.90
27647;DHT22;42229;51.230;6.240;2023-09-30T03:59:30;12.80;99.90
27647;DHT22;42229;51.230;6.240;2023-09-30T04:01:56;12.70;99.90
27647;DHT22;42229;51.230;6.240;2023-09-30T04:04:25;12.70;99.90
27647;DHT22;42229;51.230;6.240;2023-09-30T04:06:51;12.70;99.90
27647;DHT22;42229;51.230;6.240;2023-09-30T04:09:18;12.70;99.90
27647;DHT22;42229;51.230;6.240;2023-09-30T04:11:45;12.70;99.90
27647;DHT22;42229;51.230;6.240;2023-09-30T04:14:12;12.70;99.90
27647;DHT22;42229;51.230;6.240;2023-09-30T04:16:38;12.70;99.90
27647;DHT22;42229;51.230;6.240;2023-09-30T04:19:05;12.70;99.90
27647;DHT22;42229;51.230;6.240;2023-09-30T04:21:33;12.60;99.90
27647;DHT22;42229;51.230;6.240;2023-09-30T04:24:00;12.60;99.90
27647;DHT22;42229;51.230;6.240;2023-09-30T04:26:26;12.50;99.90
27647;DHT22;42229;51.230;6.240;2023-09-30T04:28:53;12.50;99.90
27647;DHT22;42229;51.230;6.240;2023-09-30T04:31:19;12.50;99.90
27647;DHT22;42229;51.230;6.240;2023-09-30T04:33:48;12.50;99.90
27647;DHT22;42229;51.230;6.240;2023-09-30T04:36:14;12.50;99.90
27647;DHT22;42229;51.230;6.240;2023-09-30T04:38:40;12.40;99.90
27647;DHT22;42229;51.230;6.240;2023-09-30T04:41:07;12.40;99.90
27647;DHT22;42229;51.230;6.240;2023-09-30T04:43:33;12.40;99.90
27647;DHT22;42229;51.230;6.240;2023-09-30T04:46:00;12.40;99.90
27647;DHT22;42229;51.230;6.240;2023-09-30T04:48:27;12.40;99.90
27647;DHT22;42229;51.230;6.240;2023-09-30T04:50:54;12.30;99.90
27647;DHT22;42229;51.230;6.240;2023-09-30T04:53:21;12.30;99.90
27647;DHT22;42229;51.230;6.240;2023-09-30T04:55:49;12.30;99.90
27647;DHT22;42229;51.230;6.240;2023-09-30T04:58:16;12.30;99.90
